sensor_id;sensor_type;location;lat;lon;timestamp;temperature;humidity
7518;DHT22;3800;48.922;9.444;2022-11-15T00:02:17;10.20;99.90
7518;DHT22;3800;48.922;9.444;2022-11-15T00:04:44;10.30;99.90
7518;DHT22;3800;48.922;9.444;2022-11-15T00:07:12;10.30;99.90
7518;DHT22;3800;48.922;9.444;2022-11-15T00:09:40;10.30;99.90
7518;DHT22;3800;48.922;9.444;2022-11-15T00:12:07;10.40;99.90
7518;DHT22;3800;48.922;9.444;2022-11-15T00:14:36;10.50;99.90
7518;DHT22;3800;48.922;9.444;2022-11-15T00:17:04;10.60;99.90
7518;DHT22;3800;48.922;9.444;2022-11-15T00:19:32;10.50;99.90
7518;DHT22;3800;48.922;9.444;2022-11-15T00:22:00;10.60;99.90
7518;DHT22;3800;48.922;9.444;2022-11-15T00:24:28;10.60;99.90
7518;DHT22;3800;48.922;9.444;2022-11-15T00:26:55;10.70;99.90
7518;DHT22;3800;48.922;9.444;2022-11-15T00:29:23;10.70;99.90
7518;DHT22;3800;48.922;9.444;2022-11-15T00:31:51;10.70;99.90
7518;DHT22;3800;48.922;9.444;2022-11-15T00:34:18;10.70;99.90
7518;DHT22;3800;48.922;9.444;2022-11-15T00:36:46;10.70;99.90
7518;DHT22;3800;48.922;9.444;2022-11-15T00:39:13;10.70;99.90
7518;DHT22;3800;48.922;9.444;2022-11-15T00:41:41;10.80;99.90
7518;DHT22;3800;48.922;9.444;2022-11-15T00:44:09;10.70;99.90
7518;DHT22;3800;48.922;9.444;2022-11-15T00:46:36;10.70;99.90
7518;DHT22;3800;48.922;9.444;2022-11-15T00:49:04;10.70;99.90
7518;DHT22;3800;48.922;9.444;2022-11-15T00:51:32;10.70;99.90
7518;DHT22;3800;48.922;9.444;2022-11-15T00:53:59;10.60;99.90
7518;DHT22;3800;48.922;9.444;2022-11-15T00:56:28;10.60;99.90
7518;DHT22;3800;48.922;9.444;2022-11-15T00:58:55;10.60;99.90
7518;DHT22;3800;48.922;9.444;2022-11-15T01:01:23;10.60;99.90
7518;DHT22;3800;48.922;9.444;2022-11-15T01:03:51;10.60;99.90
7518;DHT22;3800;48.922;9.444;2022-11-15T01:06:18;10.60;99.90
7518;DHT22;3800;48.922;9.444;2022-11-15T01:08:46;10.60;99.90
7518;DHT22;3800;48.922;9.444;2022-11-15T01:11:13;10.50;99.90
7518;DHT22;3800;48.922;9.444;2022-11-15T01:13:41;10.50;99.90
7518;DHT22;3800;48.922;9.444;2022-11-15T01:16:12;10.40;99.90
7518;DHT22;3800;48.922;9.444;2022-11-15T01:18:38;10.30;99.90
7518;DHT22;3800;48.922;9.444;2022-11-15T01:21:08;10.30;99.90
7518;DHT22;3800;48.922;9.444;2022-11-15T01:23:35;10.30;99.90
7518;DHT22;3800;48.922;9.444;2022-11-15T01:26:04;10.30;99.90
7518;DHT22;3800;48.922;9.444;2022-11-15T01:28:32;10.20;99.90
7518;DHT22;3800;48.922;9.444;2022-11-15T01:31:00;10.20;99.90
7518;DHT22;3800;48.922;9.444;2022-11-15T01:33:28;10.30;99.90
7518;DHT22;3800;48.922;9.444;2022-11-15T01:35:55;10.30;99.90
7518;DHT22;3800;48.922;9.444;2022-11-15T01:38:22;10.20;99.90
7518;DHT22;3800;48.922;9.444;2022-11-15T01:40:50;10.20;99.90
7518;DHT22;3800;48.922;9.444;2022-11-15T01:43:23;10.10;99.90
7518;DHT22;3800;48.922;9.444;2022-11-15T01:45:52;10.10;99.90
7518;DHT22;3800;48.922;9.444;2022-11-15T01:48:17;10.00;99.90
7518;DHT22;3800;48.922;9.444;2022-11-15T01:50:45;10.00;99.90
7518;DHT22;3800;48.922;9.444;2022-11-15T01:53:13;10.00;99.90
7518;DHT22;3800;48.922;9.444;2022-11-15T01:55:40;9.90;99.90
7518;DHT22;3800;48.922;9.444;2022-11-15T01:58:08;9.90;99.90
7518;DHT22;3800;48.922;9.444;2022-11-15T02:00:36;9.80;99.90
7518;DHT22;3800;48.922;9.444;2022-11-15T02:03:04;9.70;99.90
7518;DHT22;3800;48.922;9.444;2022-11-15T02:05:31;9.70;99.90
7518;DHT22;3800;48.922;9.444;2022-11-15T02:07:59;9.70;99.90
7518;DHT22;3800;48.922;9.444;2022-11-15T02:10:27;9.70;99.90
7518;DHT22;3800;48.922;9.444;2022-11-15T02:12:54;9.70;99.90
7518;DHT22;3800;48.922;9.444;2022-11-15T02:15:24;9.60;99.90
7518;DHT22;3800;48.922;9.444;2022-11-15T02:21:05;9.70;99.90
7518;DHT22;3800;48.922;9.444;2022-11-15T02:23:35;9.60;99.90
7518;DHT22;3800;48.922;9.444;2022-11-15T02:28:49;9.60;99.90
7518;DHT22;3800;48.922;9.444;2022-11-15T02:31:32;9.60;99.90
7518;DHT22;3800;48.922;9.444;2022-11-15T02:34:04;9.50;99.90
7518;DHT22;3800;48.922;9.444;2022-11-15T02:36:34;9.50;99.90
7518;DHT22;3800;48.922;9.444;2022-11-15T02:39:00;9.40;99.90
7518;DHT22;3800;48.922;9.444;2022-11-15T02:41:30;9.40;99.90
7518;DHT22;3800;48.922;9.444;2022-11-15T02:44:04;9.30;99.90
7518;DHT22;3800;48.922;9.444;2022-11-15T02:46:40;9.20;99.90
7518;DHT22;3800;48.922;9.444;2022-11-15T02:49:12;9.20;99.90
7518;DHT22;3800;48.922;9.444;2022-11-15T02:51:40;9.20;99.90
7518;DHT22;3800;48.922;9.444;2022-11-15T02:54:10;9.20;99.90
7518;DHT22;3800;48.922;9.444;2022-11-15T02:56:35;9.20;99.90
7518;DHT22;3800;48.922;9.444;2022-11-15T02:59:13;9.20;99.90
7518;DHT22;3800;48.922;9.444;2022-11-15T03:01:46;9.10;99.90
7518;DHT22;3800;48.922;9.444;2022-11-15T03:04:15;9.10;99.90
7518;DHT22;3800;48.922;9.444;2022-11-15T03:06:42;9.10;99.90
7518;DHT22;3800;48.922;9.444;2022-11-15T03:09:14;9.00;99.90
7518;DHT22;3800;48.922;9.444;2022-11-15T03:11:41;8.90;99.90
7518;DHT22;3800;48.922;9.444;2022-11-15T03:14:12;8.90;99.90
7518;DHT22;3800;48.922;9.444;2022-11-15T03:17:26;8.90;99.90
7518;DHT22;3800;48.922;9.444;2022-11-15T03:19:53;8.80;99.90
7518;DHT22;3800;48.922;9.444;2022-11-15T03:22:21;8.80;99.90
7518;DHT22;3800;48.922;9.444;2022-11-15T03:24:50;8.80;99.90
7518;DHT22;3800;48.922;9.444;2022-11-15T03:27:17;8.80;99.90
7518;DHT22;3800;48.922;9.444;2022-11-15T03:29:44;8.80;99.90
7518;DHT22;3800;48.922;9.444;2022-11-15T03:32:14;8.70;99.90
7518;DHT22;3800;48.922;9.444;2022-11-15T03:34:42;8.70;99.90
7518;DHT22;3800;48.922;9.444;2022-11-15T03:37:09;8.60;99.90
7518;DHT22;3800;48.922;9.444;2022-11-15T03:39:36;8.60;99.90
7518;DHT22;3800;48.922;9.444;2022-11-15T03:42:15;8.50;99.90
7518;DHT22;3800;48.922;9.444;2022-11-15T03:45:01;8.50;99.90
7518;DHT22;3800;48.922;9.444;2022-11-15T03:47:29;8.50;99.90
7518;DHT22;3800;48.922;9.444;2022-11-15T03:49:58;8.40;99.90
7518;DHT22;3800;48.922;9.444;2022-11-15T03:52:24;8.40;99.90
7518;DHT22;3800;48.922;9.444;2022-11-15T03:54:53;8.40;99.90
7518;DHT22;3800;48.922;9.444;2022-11-15T03:57:20;8.30;99.90
7518;DHT22;3800;48.922;9.444;2022-11-15T03:59:48;8.20;99.90
7518;DHT22;3800;48.922;9.444;2022-11-15T04:02:15;8.20;99.90
7518;DHT22;3800;48.922;9.444;2022-11-15T04:04:43;8.10;99.90
7518;DHT22;3800;48.922;9.444;2022-11-15T04:07:11;7.90;99.90
7518;DHT22;3800;48.922;9.444;2022-11-15T04:09:39;7.90;99.90
7518;DHT22;3800;48.922;9.444;2022-11-15T04:12:12;7.90;99.90
7518;DHT22;3800;48.922;9.444;2022-11-15T04:14:40;7.90;99.90
7518;DHT22;3800;48.922;9.444;2022-11-15T04:17:07;7.80;99.90
7518;DHT22;3800;48.922;9.444;2022-11-15T04:19:35;7.80;99.90
7518;DHT22;3800;48.922;9.444;2022-11-15T04:22:08;7.80;99.90
7518;DHT22;3800;48.922;9.444;2022-11-15T04:24:41;7.80;99.90
7518;DHT22;3800;48.922;9.444;2022-11-15T04:27:09;7.80;99.90
7518;DHT22;3800;48.922;9.444;2022-11-15T04:29:37;7.80;99.90
7518;DHT22;3800;48.922;9.444;2022-11-15T04:32:05;7.70;99.90
7518;DHT22;3800;48.922;9.444;2022-11-15T04:34:32;7.70;99.90
7518;DHT22;3800;48.922;9.444;2022-11-15T04:37:00;7.60;99.90
7518;DHT22;3800;48.922;9.444;2022-11-15T04:39:33;7.60;99.90
7518;DHT22;3800;48.922;9.444;2022-11-15T04:42:01;7.50;99.90
7518;DHT22;3800;48.922;9.444;2022-11-15T04:44:28;7.50;99.90
7518;DHT22;3800;48.922;9.444;2022-11-15T04:46:56;7.50;99.90
7518;DHT22;3800;48.922;9.444;2022-11-15T04:49:23;7.50;99.90
7518;DHT22;3800;48.922;9.444;2022-11-15T04:51:51;7.40;99.90
7518;DHT22;3800;48.922;9.444;2022-11-15T04:54:19;7.50;99.90
7518;DHT22;3800;48.922;9.444;2022-11-15T04:56:46;7.40;99.90
7518;DHT22;3800;48.922;9.444;2022-11-15T04:59:14;7.40;99.90
7518;DHT22;3800;48.922;9.444;2022-11-15T05:01:42;7.40;99.90
7518;DHT22;3800;48.922;9.444;2022-11-15T05:04:09;7.40;99.90
7518;DHT22;3800;48.922;9.444;2022-11-15T05:06:42;7.40;99.90
7518;DHT22;3800;48.922;9.444;2022-11-15T05:09:10;7.30;99.90
7518;DHT22;3800;48.922;9.444;2022-11-15T05:11:37;7.10;99.90
7518;DHT22;3800;48.922;9.444;2022-11-15T05:14:05;7.10;99.90
7518;DHT22;3800;48.922;9.444;2022-11-15T05:16:33;7.10;99.90
7518;DHT22;3800;48.922;9.444;2022-11-15T05:19:00;7.00;99.90
7518;DHT22;3800;48.922;9.444;2022-11-15T05:21:29;7.00;99.90
7518;DHT22;3800;48.922;9.444;2022-11-15T05:23:56;6.90;99.90
7518;DHT22;3800;48.922;9.444;2022-11-15T05:26:24;6.90;99.90
7518;DHT22;3800;48.922;9.444;2022-11-15T05:28:53;6.80;99.90
7518;DHT22;3800;48.922;9.444;2022-11-15T05:31:20;6.80;99.90
7518;DHT22;3800;48.922;9.444;2022-11-15T05:33:48;6.80;99.90
7518;DHT22;3800;48.922;9.444;2022-11-15T05:36:26;6.70;99.90
7518;DHT22;3800;48.922;9.444;2022-11-15T05:38:49;6.70;99.90
7518;DHT22;3800;48.922;9.444;2022-11-15T05:41:18;6.60;99.90
7518;DHT22;3800;48.922;9.444;2022-11-15T05:43:45;6.60;99.90
7518;DHT22;3800;48.922;9.444;2022-11-15T05:46:12;6.60;99.90
7518;DHT22;3800;48.922;9.444;2022-11-15T05:48:41;6.70;99.90
7518;DHT22;3800;48.922;9.444;2022-11-15T05:51:09;6.60;99.90
7518;DHT22;3800;48.922;9.444;2022-11-15T05:53:36;6.60;99.90
7518;DHT22;3800;48.922;9.444;2022-11-15T05:56:04;6.70;99.90
7518;DHT22;3800;48.922;9.444;2022-11-15T05:58:32;6.70;99.90
7518;DHT22;3800;48.922;9.444;2022-11-15T06:01:00;6.70;99.90
7518;DHT22;3800;48.922;9.444;2022-11-15T06:03:28;6.70;99.90
7518;DHT22;3800;48.922;9.444;2022-11-15T06:05:56;6.80;99.90
7518;DHT22;3800;48.922;9.444;2022-11-15T06:08:23;6.80;99.90
7518;DHT22;3800;48.922;9.444;2022-11-15T06:10:51;6.80;99.90
7518;DHT22;3800;48.922;9.444;2022-11-15T06:13:18;6.90;99.90
7518;DHT22;3800;48.922;9.444;2022-11-15T06:15:46;6.90;99.90
7518;DHT22;3800;48.922;9.444;2022-11-15T06:18:14;6.90;99.90
7518;DHT22;3800;48.922;9.444;2022-11-15T06:20:42;6.90;99.90
7518;DHT22;3800;48.922;9.444;2022-11-15T06:23:09;6.90;99.90
7518;DHT22;3800;48.922;9.444;2022-11-15T06:25:37;7.00;99.90
7518;DHT22;3800;48.922;9.444;2022-11-15T06:28:05;7.00;99.90
7518;DHT22;3800;48.922;9.444;2022-11-15T06:30:32;7.00;99.90
7518;DHT22;3800;48.922;9.444;2022-11-15T06:33:01;7.00;99.90
7518;DHT22;3800;48.922;9.444;2022-11-15T06:35:29;7.00;99.90
7518;DHT22;3800;48.922;9.444;2022-11-15T06:37:59;7.00;99.90
7518;DHT22;3800;48.922;9.444;2022-11-15T06:40:24;7.00;99.90
7518;DHT22;3800;48.922;9.444;2022-11-15T06:42:56;7.00;99.90
7518;DHT22;3800;48.922;9.444;2022-11-15T06:45:20;7.00;99.90
7518;DHT22;3800;48.922;9.444;2022-11-15T06:47:47;6.90;99.90
7518;DHT22;3800;48.922;9.444;2022-11-15T06:50:15;6.90;99.90
7518;DHT22;3800;48.922;9.444;2022-11-15T06:52:43;6.90;99.90
7518;DHT22;3800;48.922;9.444;2022-11-15T06:55:10;6.80;99.90
7518;DHT22;3800;48.922;9.444;2022-11-15T06:57:45;6.80;99.90
7518;DHT22;3800;48.922;9.444;2022-11-15T07:00:06;6.80;99.90
7518;DHT22;3800;48.922;9.444;2022-11-15T07:02:34;6.70;99.90
7518;DHT22;3800;48.922;9.444;2022-11-15T07:05:01;6.70;99.90
7518;DHT22;3800;48.922;9.444;2022-11-15T07:07:29;6.60;99.90
7518;DHT22;3800;48.922;9.444;2022-11-15T07:09:57;6.60;99.90
7518;DHT22;3800;48.922;9.444;2022-11-15T07:12:24;6.60;99.90
7518;DHT22;3800;48.922;9.444;2022-11-15T07:14:52;6.70;99.90
7518;DHT22;3800;48.922;9.444;2022-11-15T07:17:19;6.70;99.90
7518;DHT22;3800;48.922;9.444;2022-11-15T07:19:47;6.70;99.90
7518;DHT22;3800;48.922;9.444;2022-11-15T07:22:15;6.70;99.90
7518;DHT22;3800;48.922;9.444;2022-11-15T07:24:42;6.80;99.90
7518;DHT22;3800;48.922;9.444;2022-11-15T07:27:10;6.90;99.90
7518;DHT22;3800;48.922;9.444;2022-11-15T07:29:38;7.00;99.90
7518;DHT22;3800;48.922;9.444;2022-11-15T07:32:06;7.00;99.90
7518;DHT22;3800;48.922;9.444;2022-11-15T07:34:34;7.10;99.90
7518;DHT22;3800;48.922;9.444;2022-11-15T07:37:01;7.20;99.90
7518;DHT22;3800;48.922;9.444;2022-11-15T07:39:29;7.20;99.90
7518;DHT22;3800;48.922;9.444;2022-11-15T07:41:57;7.30;99.90
7518;DHT22;3800;48.922;9.444;2022-11-15T07:44:39;7.40;99.90
7518;DHT22;3800;48.922;9.444;2022-11-15T07:47:07;7.30;99.90
7518;DHT22;3800;48.922;9.444;2022-11-15T07:49:34;7.40;99.90
7518;DHT22;3800;48.922;9.444;2022-11-15T07:52:02;7.40;99.90
7518;DHT22;3800;48.922;9.444;2022-11-15T07:54:30;7.40;99.90
7518;DHT22;3800;48.922;9.444;2022-11-15T07:56:57;7.50;99.90
7518;DHT22;3800;48.922;9.444;2022-11-15T07:59:25;7.60;99.90
7518;DHT22;3800;48.922;9.444;2022-11-15T08:01:52;7.60;99.90
7518;DHT22;3800;48.922;9.444;2022-11-15T08:04:20;7.70;99.90
7518;DHT22;3800;48.922;9.444;2022-11-15T08:06:48;7.80;99.90
7518;DHT22;3800;48.922;9.444;2022-11-15T08:09:15;7.90;99.90
7518;DHT22;3800;48.922;9.444;2022-11-15T08:11:43;8.00;99.90
7518;DHT22;3800;48.922;9.444;2022-11-15T08:14:11;8.00;99.90
7518;DHT22;3800;48.922;9.444;2022-11-15T08:16:38;8.10;99.90
7518;DHT22;3800;48.922;9.444;2022-11-15T08:19:06;8.20;99.90
7518;DHT22;3800;48.922;9.444;2022-11-15T08:21:34;8.30;99.90
7518;DHT22;3800;48.922;9.444;2022-11-15T08:24:01;8.40;99.90
7518;DHT22;3800;48.922;9.444;2022-11-15T08:26:29;8.40;99.90
7518;DHT22;3800;48.922;9.444;2022-11-15T08:28:56;8.50;99.90
7518;DHT22;3800;48.922;9.444;2022-11-15T08:31:24;8.60;99.90
7518;DHT22;3800;48.922;9.444;2022-11-15T08:33:52;8.70;99.90
7518;DHT22;3800;48.922;9.444;2022-11-15T08:36:19;8.70;99.90
7518;DHT22;3800;48.922;9.444;2022-11-15T08:38:47;8.90;99.90
7518;DHT22;3800;48.922;9.444;2022-11-15T08:41:32;9.00;99.90
7518;DHT22;3800;48.922;9.444;2022-11-15T08:43:59;9.20;99.90
7518;DHT22;3800;48.922;9.444;2022-11-15T08:46:26;9.30;99.90
7518;DHT22;3800;48.922;9.444;2022-11-15T08:48:54;9.50;99.90
7518;DHT22;3800;48.922;9.444;2022-11-15T08:51:22;9.70;99.90
7518;DHT22;3800;48.922;9.444;2022-11-15T08:53:50;9.70;99.90
7518;DHT22;3800;48.922;9.444;2022-11-15T08:56:17;9.80;99.90
7518;DHT22;3800;48.922;9.444;2022-11-15T08:58:45;9.90;99.90
7518;DHT22;3800;48.922;9.444;2022-11-15T09:01:16;9.90;99.90
7518;DHT22;3800;48.922;9.444;2022-11-15T09:03:42;9.90;99.90
7518;DHT22;3800;48.922;9.444;2022-11-15T09:06:10;9.90;99.90
7518;DHT22;3800;48.922;9.444;2022-11-15T09:08:37;9.90;99.90
7518;DHT22;3800;48.922;9.444;2022-11-15T09:11:06;9.90;99.90
7518;DHT22;3800;48.922;9.444;2022-11-15T09:13:33;10.00;99.90
7518;DHT22;3800;48.922;9.444;2022-11-15T09:16:00;10.00;99.90
7518;DHT22;3800;48.922;9.444;2022-11-15T09:18:28;10.10;99.90
7518;DHT22;3800;48.922;9.444;2022-11-15T09:20:57;10.10;99.90
7518;DHT22;3800;48.922;9.444;2022-11-15T09:23:24;10.20;99.90
7518;DHT22;3800;48.922;9.444;2022-11-15T09:25:51;10.20;99.90
7518;DHT22;3800;48.922;9.444;2022-11-15T09:28:20;10.40;99.90
7518;DHT22;3800;48.922;9.444;2022-11-15T09:30:48;10.30;99.90
7518;DHT22;3800;48.922;9.444;2022-11-15T09:33:16;10.50;99.90
7518;DHT22;3800;48.922;9.444;2022-11-15T09:35:43;10.60;99.90
7518;DHT22;3800;48.922;9.444;2022-11-15T09:38:11;10.70;99.90
7518;DHT22;3800;48.922;9.444;2022-11-15T09:40:39;10.80;99.90
7518;DHT22;3800;48.922;9.444;2022-11-15T09:43:26;10.80;99.90
7518;DHT22;3800;48.922;9.444;2022-11-15T09:46:05;10.90;99.90
7518;DHT22;3800;48.922;9.444;2022-11-15T09:48:38;11.00;99.90
7518;DHT22;3800;48.922;9.444;2022-11-15T09:51:02;11.00;99.90
7518;DHT22;3800;48.922;9.444;2022-11-15T09:53:40;11.10;99.90
7518;DHT22;3800;48.922;9.444;2022-11-15T09:56:20;11.10;99.90
7518;DHT22;3800;48.922;9.444;2022-11-15T09:59:12;11.20;99.90
7518;DHT22;3800;48.922;9.444;2022-11-15T10:04:42;11.40;99.90
7518;DHT22;3800;48.922;9.444;2022-11-15T10:07:16;11.50;99.90
7518;DHT22;3800;48.922;9.444;2022-11-15T10:09:45;11.60;99.90
7518;DHT22;3800;48.922;9.444;2022-11-15T10:12:10;11.60;99.90
7518;DHT22;3800;48.922;9.444;2022-11-15T10:14:38;11.70;99.90
7518;DHT22;3800;48.922;9.444;2022-11-15T10:17:09;11.80;99.90
7518;DHT22;3800;48.922;9.444;2022-11-15T10:19:54;11.80;99.90
7518;DHT22;3800;48.922;9.444;2022-11-15T10:22:39;11.90;99.90
7518;DHT22;3800;48.922;9.444;2022-11-15T10:25:22;12.00;99.90
7518;DHT22;3800;48.922;9.444;2022-11-15T10:27:56;12.10;99.90
7518;DHT22;3800;48.922;9.444;2022-11-15T10:30:23;12.20;99.90
7518;DHT22;3800;48.922;9.444;2022-11-15T10:32:50;12.20;99.90
7518;DHT22;3800;48.922;9.444;2022-11-15T10:35:20;12.30;99.90
7518;DHT22;3800;48.922;9.444;2022-11-15T10:37:46;12.40;99.90
7518;DHT22;3800;48.922;9.444;2022-11-15T10:40:23;12.40;99.90
7518;DHT22;3800;48.922;9.444;2022-11-15T10:45:26;12.50;99.90
7518;DHT22;3800;48.922;9.444;2022-11-15T10:47:52;12.50;99.90
7518;DHT22;3800;48.922;9.444;2022-11-15T10:50:28;12.60;99.90
7518;DHT22;3800;48.922;9.444;2022-11-15T10:52:54;12.70;99.90
7518;DHT22;3800;48.922;9.444;2022-11-15T10:55:25;12.70;99.90
7518;DHT22;3800;48.922;9.444;2022-11-15T10:57:54;12.70;99.90
7518;DHT22;3800;48.922;9.444;2022-11-15T11:00:32;12.80;99.90
7518;DHT22;3800;48.922;9.444;2022-11-15T11:03:00;12.80;99.90
7518;DHT22;3800;48.922;9.444;2022-11-15T11:05:41;12.80;99.90
7518;DHT22;3800;48.922;9.444;2022-11-15T11:08:22;12.80;99.90
7518;DHT22;3800;48.922;9.444;2022-11-15T11:10:52;12.80;99.90
7518;DHT22;3800;48.922;9.444;2022-11-15T11:13:22;12.90;99.90
7518;DHT22;3800;48.922;9.444;2022-11-15T11:15:53;12.90;99.90
7518;DHT22;3800;48.922;9.444;2022-11-15T11:18:26;13.00;99.90
7518;DHT22;3800;48.922;9.444;2022-11-15T11:20:55;12.90;99.90
7518;DHT22;3800;48.922;9.444;2022-11-15T11:23:54;13.00;99.90
7518;DHT22;3800;48.922;9.444;2022-11-15T11:26:16;13.00;99.90
7518;DHT22;3800;48.922;9.444;2022-11-15T11:28:48;13.00;99.90
7518;DHT22;3800;48.922;9.444;2022-11-15T11:31:20;13.10;99.90
7518;DHT22;3800;48.922;9.444;2022-11-15T11:33:51;13.10;99.90
7518;DHT22;3800;48.922;9.444;2022-11-15T11:36:25;13.10;99.90
7518;DHT22;3800;48.922;9.444;2022-11-15T11:38:56;13.20;99.90
7518;DHT22;3800;48.922;9.444;2022-11-15T11:41:55;13.20;99.90
7518;DHT22;3800;48.922;9.444;2022-11-15T11:44:21;13.30;99.90
7518;DHT22;3800;48.922;9.444;2022-11-15T11:46:53;13.30;99.90
7518;DHT22;3800;48.922;9.444;2022-11-15T11:49:21;13.40;99.90
7518;DHT22;3800;48.922;9.444;2022-11-15T11:54:42;13.50;99.90
7518;DHT22;3800;48.922;9.444;2022-11-15T11:57:09;13.50;99.90
7518;DHT22;3800;48.922;9.444;2022-11-15T11:59:37;13.50;99.90
7518;DHT22;3800;48.922;9.444;2022-11-15T12:02:09;13.50;99.90
7518;DHT22;3800;48.922;9.444;2022-11-15T12:04:31;13.60;99.90
7518;DHT22;3800;48.922;9.444;2022-11-15T12:07:17;13.60;99.90
7518;DHT22;3800;48.922;9.444;2022-11-15T12:09:47;13.70;99.90
7518;DHT22;3800;48.922;9.444;2022-11-15T12:12:25;13.70;99.90
7518;DHT22;3800;48.922;9.444;2022-11-15T12:14:54;13.70;99.90
7518;DHT22;3800;48.922;9.444;2022-11-15T12:17:24;13.70;99.90
7518;DHT22;3800;48.922;9.444;2022-11-15T12:19:49;13.70;99.90
7518;DHT22;3800;48.922;9.444;2022-11-15T12:22:19;13.70;99.90
7518;DHT22;3800;48.922;9.444;2022-11-15T12:24:48;13.70;99.90
7518;DHT22;3800;48.922;9.444;2022-11-15T12:27:22;13.70;99.90
7518;DHT22;3800;48.922;9.444;2022-11-15T12:29:50;13.80;99.90
7518;DHT22;3800;48.922;9.444;2022-11-15T12:32:34;13.80;99.90
7518;DHT22;3800;48.922;9.444;2022-11-15T12:35:01;13.80;99.90
7518;DHT22;3800;48.922;9.444;2022-11-15T12:37:50;13.90;99.90
7518;DHT22;3800;48.922;9.444;2022-11-15T12:40:23;13.90;99.90
7518;DHT22;3800;48.922;9.444;2022-11-15T12:43:00;14.00;99.90
7518;DHT22;3800;48.922;9.444;2022-11-15T12:45:31;14.00;99.90
7518;DHT22;3800;48.922;9.444;2022-11-15T12:50:58;14.00;99.90
7518;DHT22;3800;48.922;9.444;2022-11-15T12:53:26;14.00;99.90
7518;DHT22;3800;48.922;9.444;2022-11-15T12:56:19;14.10;99.90
7518;DHT22;3800;48.922;9.444;2022-11-15T12:58:52;14.10;99.90
7518;DHT22;3800;48.922;9.444;2022-11-15T13:01:52;14.10;99.90
7518;DHT22;3800;48.922;9.444;2022-11-15T13:06:42;14.10;99.90
7518;DHT22;3800;48.922;9.444;2022-11-15T13:09:53;14.10;99.90
7518;DHT22;3800;48.922;9.444;2022-11-15T13:12:11;14.10;99.90
7518;DHT22;3800;48.922;9.444;2022-11-15T13:14:45;14.10;99.90
7518;DHT22;3800;48.922;9.444;2022-11-15T13:17:27;14.10;99.90
7518;DHT22;3800;48.922;9.444;2022-11-15T13:20:17;14.00;99.90
7518;DHT22;3800;48.922;9.444;2022-11-15T13:22:39;14.10;99.90
7518;DHT22;3800;48.922;9.444;2022-11-15T13:25:16;14.10;99.90
7518;DHT22;3800;48.922;9.444;2022-11-15T13:27:43;14.10;99.90
7518;DHT22;3800;48.922;9.444;2022-11-15T13:30:22;14.10;99.90
7518;DHT22;3800;48.922;9.444;2022-11-15T13:32:49;14.10;99.90
7518;DHT22;3800;48.922;9.444;2022-11-15T13:35:23;14.10;99.90
7518;DHT22;3800;48.922;9.444;2022-11-15T13:37:50;14.10;99.90
7518;DHT22;3800;48.922;9.444;2022-11-15T13:40:23;14.00;99.90
7518;DHT22;3800;48.922;9.444;2022-11-15T13:42:48;14.00;99.90
7518;DHT22;3800;48.922;9.444;2022-11-15T13:45:17;14.00;99.90
7518;DHT22;3800;48.922;9.444;2022-11-15T13:47:44;14.00;99.90
7518;DHT22;3800;48.922;9.444;2022-11-15T13:50:12;14.00;99.90
7518;DHT22;3800;48.922;9.444;2022-11-15T13:52:40;13.90;99.90
7518;DHT22;3800;48.922;9.444;2022-11-15T13:55:11;13.90;99.90
7518;DHT22;3800;48.922;9.444;2022-11-15T13:57:41;13.80;99.90
7518;DHT22;3800;48.922;9.444;2022-11-15T14:00:25;13.80;99.90
7518;DHT22;3800;48.922;9.444;2022-11-15T14:02:37;13.70;99.90
7518;DHT22;3800;48.922;9.444;2022-11-15T14:05:20;13.70;99.90
7518;DHT22;3800;48.922;9.444;2022-11-15T14:08:04;13.60;99.90
7518;DHT22;3800;48.922;9.444;2022-11-15T14:10:32;13.60;99.90
7518;DHT22;3800;48.922;9.444;2022-11-15T14:12:58;13.60;99.90
7518;DHT22;3800;48.922;9.444;2022-11-15T14:15:33;13.60;99.90
7518;DHT22;3800;48.922;9.444;2022-11-15T14:18:00;13.60;99.90
7518;DHT22;3800;48.922;9.444;2022-11-15T14:20:29;13.60;99.90
7518;DHT22;3800;48.922;9.444;2022-11-15T14:22:56;13.50;99.90
7518;DHT22;3800;48.922;9.444;2022-11-15T14:25:25;13.50;99.90
7518;DHT22;3800;48.922;9.444;2022-11-15T14:30:32;13.50;99.90
7518;DHT22;3800;48.922;9.444;2022-11-15T14:33:00;13.40;99.90
7518;DHT22;3800;48.922;9.444;2022-11-15T14:35:27;13.40;99.90
7518;DHT22;3800;48.922;9.444;2022-11-15T14:37:55;13.40;99.90
7518;DHT22;3800;48.922;9.444;2022-11-15T14:40:23;13.40;99.90
7518;DHT22;3800;48.922;9.444;2022-11-15T14:42:50;13.30;99.90
7518;DHT22;3800;48.922;9.444;2022-11-15T14:45:20;13.30;99.90
7518;DHT22;3800;48.922;9.444;2022-11-15T14:47:46;13.30;99.90
7518;DHT22;3800;48.922;9.444;2022-11-15T14:50:14;13.20;99.90
7518;DHT22;3800;48.922;9.444;2022-11-15T14:52:41;13.20;99.90
7518;DHT22;3800;48.922;9.444;2022-11-15T14:55:26;13.20;99.90
7518;DHT22;3800;48.922;9.444;2022-11-15T14:57:53;13.20;99.90
7518;DHT22;3800;48.922;9.444;2022-11-15T15:00:21;13.10;99.90
7518;DHT22;3800;48.922;9.444;2022-11-15T15:02:50;13.00;99.90
7518;DHT22;3800;48.922;9.444;2022-11-15T15:05:19;13.00;99.90
7518;DHT22;3800;48.922;9.444;2022-11-15T15:07:45;12.90;99.90
7518;DHT22;3800;48.922;9.444;2022-11-15T15:10:13;12.90;99.90
7518;DHT22;3800;48.922;9.444;2022-11-15T15:12:40;12.90;99.90
7518;DHT22;3800;48.922;9.444;2022-11-15T15:15:14;12.80;99.90
7518;DHT22;3800;48.922;9.444;2022-11-15T15:17:41;12.70;99.90
7518;DHT22;3800;48.922;9.444;2022-11-15T15:20:09;12.70;99.90
7518;DHT22;3800;48.922;9.444;2022-11-15T15:22:37;12.60;99.90
7518;DHT22;3800;48.922;9.444;2022-11-15T15:25:36;12.60;99.90
7518;DHT22;3800;48.922;9.444;2022-11-15T15:27:47;12.50;99.90
7518;DHT22;3800;48.922;9.444;2022-11-15T15:30:14;12.50;99.90
7518;DHT22;3800;48.922;9.444;2022-11-15T15:32:42;12.40;99.90
7518;DHT22;3800;48.922;9.444;2022-11-15T15:35:12;12.40;99.90
7518;DHT22;3800;48.922;9.444;2022-11-15T15:37:40;12.40;99.90
7518;DHT22;3800;48.922;9.444;2022-11-15T15:40:10;12.30;99.90
7518;DHT22;3800;48.922;9.444;2022-11-15T15:42:36;12.30;99.90
7518;DHT22;3800;48.922;9.444;2022-11-15T15:45:04;12.30;99.90
7518;DHT22;3800;48.922;9.444;2022-11-15T15:47:31;12.20;99.90
7518;DHT22;3800;48.922;9.444;2022-11-15T15:49:59;12.10;99.90
7518;DHT22;3800;48.922;9.444;2022-11-15T15:52:27;12.10;99.90
7518;DHT22;3800;48.922;9.444;2022-11-15T15:54:55;12.10;99.90
7518;DHT22;3800;48.922;9.444;2022-11-15T15:57:23;12.00;99.90
7518;DHT22;3800;48.922;9.444;2022-11-15T15:59:50;12.00;99.90
7518;DHT22;3800;48.922;9.444;2022-11-15T16:02:19;12.00;99.90
7518;DHT22;3800;48.922;9.444;2022-11-15T16:04:46;12.00;99.90
7518;DHT22;3800;48.922;9.444;2022-11-15T16:07:16;12.00;99.90
7518;DHT22;3800;48.922;9.444;2022-11-15T16:09:42;11.90;99.90
7518;DHT22;3800;48.922;9.444;2022-11-15T16:12:30;11.80;99.90
7518;DHT22;3800;48.922;9.444;2022-11-15T16:14:58;11.80;99.90
7518;DHT22;3800;48.922;9.444;2022-11-15T16:17:26;11.80;99.90
7518;DHT22;3800;48.922;9.444;2022-11-15T16:19:54;11.80;99.90
7518;DHT22;3800;48.922;9.444;2022-11-15T16:22:23;11.80;99.90
7518;DHT22;3800;48.922;9.444;2022-11-15T16:24:51;11.80;99.90
7518;DHT22;3800;48.922;9.444;2022-11-15T16:27:19;11.70;99.90
7518;DHT22;3800;48.922;9.444;2022-11-15T16:29:49;11.70;99.90
7518;DHT22;3800;48.922;9.444;2022-11-15T16:32:18;11.70;99.90
7518;DHT22;3800;48.922;9.444;2022-11-15T16:34:51;11.70;99.90
7518;DHT22;3800;48.922;9.444;2022-11-15T16:37:26;11.70;99.90
7518;DHT22;3800;48.922;9.444;2022-11-15T16:40:01;11.70;99.90
7518;DHT22;3800;48.922;9.444;2022-11-15T16:42:30;11.70;99.90
7518;DHT22;3800;48.922;9.444;2022-11-15T16:44:58;11.60;99.90
7518;DHT22;3800;48.922;9.444;2022-11-15T16:47:26;11.60;99.90
7518;DHT22;3800;48.922;9.444;2022-11-15T16:49:54;11.70;99.90